createdAt,value
2019-01-02T04:01:06.189Z,5.30
2019-01-02T04:02:06.584Z,6.90
2019-01-02T04:04:06.733Z,6.40
2019-01-02T04:05:06.809Z,7.00
2019-01-02T04:06:07.823Z,7.40
2019-01-02T04:07:07.254Z,6.60
2019-01-02T04:08:07.589Z,7.30
2019-01-02T04:10:08.100Z,6.70
2019-01-02T04:11:08.055Z,6.40
2019-01-02T04:12:08.053Z,6.60
2019-01-02T04:13:08.016Z,6.80
2019-01-02T04:14:06.354Z,6.90
2019-01-02T04:15:06.363Z,6.80
2019-01-02T04:16:06.510Z,7.00
2019-01-02T04:17:06.740Z,7.10
2019-01-02T04:18:06.873Z,7.00
2019-01-02T04:19:07.052Z,6.10
2019-01-02T04:20:07.191Z,6.20
2019-01-02T04:21:07.295Z,6.40
2019-01-02T04:22:07.500Z,7.10
2019-01-02T04:23:07.681Z,7.40
2019-01-02T04:24:08.532Z,7.30
2019-01-02T04:25:07.919Z,6.40
2019-01-02T04:26:08.049Z,6.50
2019-01-02T04:27:08.213Z,7.10
2019-01-02T04:28:08.382Z,6.70
2019-01-02T04:29:08.488Z,6.40
2019-01-02T04:30:08.703Z,6.90
2019-01-02T04:31:08.845Z,6.90
2019-01-02T04:32:10.305Z,6.50
2019-01-02T04:33:09.154Z,6.90
2019-01-02T04:34:09.359Z,6.30
2019-01-02T04:35:09.539Z,7.50
2019-01-02T04:36:09.658Z,7.00
2019-01-02T04:37:09.867Z,7.20
2019-01-02T04:38:10.049Z,7.40
2019-01-02T04:39:10.135Z,7.50
2019-01-02T04:40:10.457Z,6.80
2019-01-02T04:41:10.506Z,6.90
2019-01-02T04:42:10.658Z,7.10
2019-01-02T04:43:10.771Z,7.40
2019-01-02T04:44:10.942Z,8.80
2019-01-02T04:45:11.102Z,9.10
2019-01-02T04:46:11.323Z,8.80
2019-01-02T04:47:11.487Z,8.50
2019-01-02T04:48:11.641Z,7.90
2019-01-02T04:49:11.703Z,10.00
2019-01-02T04:50:11.867Z,12.60
2019-01-02T04:51:12.082Z,9.40
2019-01-02T04:52:12.320Z,6.70
2019-01-02T04:53:12.436Z,6.50
2019-01-02T04:54:12.534Z,6.00
2019-01-02T04:55:13.404Z,7.30
2019-01-02T04:56:12.884Z,9.30
2019-01-02T04:57:13.008Z,13.70
2019-01-02T04:58:13.172Z,22.00
2019-01-02T04:59:13.329Z,26.40
2019-01-02T05:00:13.741Z,11.40
2019-01-02T05:01:13.761Z,10.20
2019-01-02T05:02:13.890Z,8.30
2019-01-02T05:03:14.033Z,7.10
2019-01-02T05:04:14.233Z,6.70
2019-01-02T05:05:14.444Z,5.70
2019-01-02T05:06:14.596Z,5.30
2019-01-02T05:07:14.818Z,5.70
2019-01-02T05:08:14.937Z,5.40
2019-01-02T05:09:15.118Z,5.00
2019-01-02T05:10:15.256Z,5.50
2019-01-02T05:11:15.339Z,5.30
2019-01-02T05:12:15.629Z,5.10
2019-01-02T05:13:15.754Z,5.70
2019-01-02T05:14:15.861Z,5.60
2019-01-02T05:15:16.085Z,5.80
2019-01-02T05:16:16.228Z,6.20
2019-01-02T05:17:16.334Z,5.60
2019-01-02T05:18:16.511Z,6.40
2019-01-02T05:19:16.687Z,6.00
2019-01-02T05:20:16.824Z,5.70
2019-01-02T05:21:17.007Z,5.60
2019-01-02T05:22:17.135Z,6.20
2019-01-02T05:23:17.291Z,6.30
2019-01-02T05:24:17.442Z,6.00
2019-01-02T05:25:17.572Z,5.90
2019-01-02T05:26:17.770Z,6.30
2019-01-02T05:27:17.938Z,6.50
2019-01-02T05:28:18.105Z,6.50
2019-01-02T05:29:18.260Z,7.20
2019-01-02T05:30:18.461Z,6.40
2019-01-02T05:31:18.667Z,5.70
2019-01-02T05:32:18.836Z,6.80
2019-01-02T05:33:18.966Z,6.70
2019-01-02T05:34:19.081Z,6.60
2019-01-02T05:35:19.230Z,6.30
2019-01-02T05:36:19.380Z,6.60
2019-01-02T05:37:19.557Z,6.20
2019-01-02T05:38:19.691Z,7.70
2019-01-02T05:39:19.848Z,7.10
2019-01-02T05:40:19.975Z,6.80
2019-01-02T05:41:20.167Z,7.10
2019-01-02T05:42:20.289Z,7.70
2019-01-02T05:43:20.484Z,7.10
2019-01-02T05:44:20.623Z,7.00
2019-01-02T05:45:20.799Z,7.20
2019-01-02T05:46:21.010Z,6.80
2019-01-02T05:47:21.130Z,7.60
2019-01-02T05:48:21.303Z,7.10
2019-01-02T05:49:21.489Z,7.40
2019-01-02T05:50:21.540Z,7.60
2019-01-02T05:51:21.693Z,7.00
2019-01-02T05:52:21.981Z,7.30
2019-01-02T05:53:22.190Z,6.50
2019-01-02T05:54:22.330Z,7.90
2019-01-02T05:55:22.470Z,7.70
2019-01-02T05:56:22.645Z,7.50
2019-01-02T05:57:22.775Z,7.70
2019-01-02T05:58:23.009Z,7.40
2019-01-02T05:59:23.115Z,8.20
2019-01-02T06:00:23.221Z,8.10
2019-01-02T06:01:23.533Z,8.10
2019-01-02T06:02:23.633Z,8.00
2019-01-02T06:03:23.786Z,8.00
2019-01-02T06:04:23.935Z,8.10
2019-01-02T06:05:24.033Z,8.70
2019-01-02T06:06:24.292Z,8.30
2019-01-02T06:07:24.354Z,8.50
2019-01-02T06:08:24.548Z,8.20
2019-01-02T06:09:24.826Z,8.70
2019-01-02T06:10:24.912Z,7.70
2019-01-02T06:11:25.150Z,8.00
2019-01-02T06:12:25.254Z,7.90
2019-01-02T06:13:25.415Z,8.20
2019-01-02T06:14:25.607Z,8.00
2019-01-02T06:15:25.733Z,8.90
2019-01-02T06:16:25.845Z,8.50
2019-01-02T06:17:26.089Z,8.40
2019-01-02T06:18:26.386Z,8.20
2019-01-02T06:19:26.464Z,8.10
2019-01-02T06:20:26.609Z,8.50
2019-01-02T06:21:26.820Z,9.50
2019-01-02T06:22:26.886Z,8.50
2019-01-02T06:23:27.236Z,8.20
2019-01-02T06:24:27.272Z,8.60
2019-01-02T06:25:27.438Z,8.80
2019-01-02T06:26:27.572Z,8.60
2019-01-02T06:27:27.738Z,8.80
2019-01-02T06:28:27.931Z,8.50
2019-01-02T06:29:28.042Z,8.70
2019-01-02T06:30:28.167Z,8.10
2019-01-02T06:31:28.425Z,8.30
2019-01-02T06:32:28.535Z,8.00
2019-01-02T06:33:28.692Z,8.50
2019-01-02T06:34:28.835Z,8.60
2019-01-02T06:35:29.045Z,8.10
2019-01-02T06:36:29.173Z,8.00
2019-01-02T06:37:29.361Z,9.50
2019-01-02T06:38:29.495Z,8.50
2019-01-02T06:39:29.650Z,9.20
2019-01-02T06:40:29.781Z,8.50
2019-01-02T06:41:29.870Z,8.70
2019-01-02T06:42:30.207Z,8.90
2019-01-02T06:43:30.312Z,8.90
2019-01-02T06:44:30.456Z,8.50
2019-01-02T06:45:30.586Z,8.00
2019-01-02T06:46:30.724Z,8.50
2019-01-02T06:47:30.882Z,8.40
2019-01-02T06:48:31.053Z,9.30
2019-01-02T06:49:31.235Z,9.60
2019-01-02T06:50:31.367Z,9.30
2019-01-02T06:51:31.516Z,8.50
2019-01-02T06:52:31.681Z,9.40
2019-01-02T06:53:31.845Z,8.70
2019-01-02T06:54:31.939Z,8.80
2019-01-02T06:55:32.188Z,9.00
2019-01-02T06:56:32.358Z,8.90
2019-01-02T06:57:32.993Z,9.70
2019-01-02T06:58:32.653Z,9.70
2019-01-02T06:59:32.785Z,8.80
2019-01-02T07:00:32.953Z,9.40
2019-01-02T07:01:33.161Z,9.50
2019-01-02T07:02:33.286Z,9.40
2019-01-02T07:03:33.490Z,9.20
2019-01-02T07:04:33.567Z,9.00
2019-01-02T07:05:34.358Z,8.50
2019-01-02T07:06:33.963Z,9.20
2019-01-02T07:07:34.038Z,8.70
2019-01-02T07:08:34.256Z,9.00
2019-01-02T07:09:34.383Z,9.30
2019-01-02T07:10:34.587Z,9.50
2019-01-02T07:11:34.757Z,9.00
2019-01-02T07:12:34.900Z,9.10
2019-01-02T07:13:34.995Z,8.70
2019-01-02T07:14:35.150Z,8.30
2019-01-02T07:15:35.371Z,9.00
2019-01-02T07:16:35.520Z,9.00
2019-01-02T07:17:35.668Z,9.30
2019-01-02T07:18:35.813Z,9.00
2019-01-02T07:19:36.057Z,9.50
2019-01-02T07:20:36.126Z,9.50
2019-01-02T07:21:36.423Z,9.20
2019-01-02T07:22:36.604Z,8.60
2019-01-02T07:23:36.700Z,9.70
2019-01-02T07:24:36.840Z,9.40
2019-01-02T07:25:37.029Z,9.70
2019-01-02T07:26:37.132Z,9.30
2019-01-02T07:27:37.375Z,9.30
2019-01-02T07:28:37.496Z,9.10
2019-01-02T07:29:37.598Z,9.10
2019-01-02T07:30:37.764Z,9.50
2019-01-02T07:31:37.981Z,9.40
2019-01-02T07:32:38.069Z,9.30
2019-01-02T07:33:38.304Z,10.10
2019-01-02T07:34:38.465Z,9.20
2019-01-02T07:35:38.611Z,9.30
2019-01-02T07:36:38.855Z,9.90
2019-01-02T07:37:38.987Z,9.00
2019-01-02T07:38:39.100Z,9.10
2019-01-02T07:39:39.279Z,9.20
2019-01-02T07:40:39.558Z,9.60
2019-01-02T07:41:39.608Z,9.30
2019-01-02T07:42:39.745Z,9.10
2019-01-02T07:43:39.917Z,9.20
2019-01-02T07:44:40.128Z,9.10
2019-01-02T07:45:40.329Z,9.30
2019-01-02T07:46:40.465Z,9.30
2019-01-02T07:47:40.643Z,9.50
2019-01-02T07:48:40.755Z,9.40
2019-01-02T07:49:40.926Z,10.10
2019-01-02T07:50:41.115Z,10.30
2019-01-02T07:51:41.358Z,10.20
2019-01-02T07:52:41.519Z,9.70
2019-01-02T07:53:41.610Z,9.00
2019-01-02T07:54:41.802Z,8.80
2019-01-02T07:55:41.941Z,9.60
2019-01-02T07:56:42.114Z,9.40
2019-01-02T07:57:42.237Z,9.30
2019-01-02T07:58:42.490Z,9.60
2019-01-02T07:59:42.598Z,10.10
2019-01-02T08:00:42.850Z,8.90
2019-01-02T08:01:42.819Z,9.00
2019-01-02T08:02:43.204Z,9.90
2019-01-02T08:03:43.101Z,9.80
2019-01-02T08:04:43.275Z,9.50
2019-01-02T08:05:43.432Z,9.60
2019-01-02T08:06:43.636Z,9.60
2019-01-02T08:07:43.710Z,9.50
2019-01-02T08:08:43.927Z,9.20
2019-01-02T08:09:44.948Z,9.10
2019-01-02T08:10:44.230Z,9.20
2019-01-02T08:11:44.412Z,9.40
2019-01-02T08:12:44.620Z,9.90
2019-01-02T08:13:44.787Z,9.90
2019-01-02T08:14:45.020Z,9.90
2019-01-02T08:15:45.152Z,9.70
2019-01-02T08:16:45.363Z,10.20
2019-01-02T08:17:45.512Z,9.80
2019-01-02T08:18:45.695Z,9.10
2019-01-02T08:19:45.835Z,9.60
2019-01-02T08:20:46.043Z,9.60
2019-01-02T08:21:46.220Z,9.40
2019-01-02T08:22:46.444Z,9.40
2019-01-02T08:23:46.467Z,8.50
2019-01-02T08:24:46.792Z,9.40
2019-01-02T08:25:46.968Z,9.70
2019-01-02T08:26:47.129Z,9.50
2019-01-02T08:27:47.198Z,9.90
2019-01-02T08:28:47.489Z,8.60
2019-01-02T08:29:47.517Z,8.70
2019-01-02T08:30:47.775Z,8.00
2019-01-02T08:31:47.971Z,7.40
2019-01-02T08:32:48.105Z,6.60
2019-01-02T08:33:48.216Z,7.20
2019-01-02T08:34:48.368Z,6.70
2019-01-02T08:35:48.478Z,6.80
2019-01-02T08:36:48.702Z,6.00
2019-01-02T08:37:48.804Z,6.30
2019-01-02T08:38:49.002Z,6.10
2019-01-02T08:39:49.089Z,7.00
2019-01-02T08:40:49.331Z,6.50
2019-01-02T08:41:49.468Z,6.10
2019-01-02T08:42:49.626Z,6.30
2019-01-02T08:43:49.739Z,6.00
2019-01-02T08:44:49.893Z,5.30
2019-01-02T08:45:50.051Z,6.20
2019-01-02T08:46:50.211Z,5.80
2019-01-02T08:47:50.381Z,5.60
2019-01-02T08:48:50.600Z,5.70
2019-01-02T08:49:50.682Z,5.40
2019-01-02T08:50:50.866Z,5.80
2019-01-02T08:51:50.999Z,5.40
2019-01-02T08:52:51.149Z,5.80
2019-01-02T08:53:51.266Z,5.90
2019-01-02T08:54:51.474Z,4.90
2019-01-02T08:55:51.645Z,5.10
2019-01-02T08:56:51.841Z,5.80
2019-01-02T08:57:51.952Z,6.00
2019-01-02T08:58:52.154Z,5.80
2019-01-02T08:59:52.357Z,5.60
2019-01-02T09:00:52.532Z,5.90
2019-01-02T09:01:52.713Z,5.80
2019-01-02T09:02:52.836Z,5.60
2019-01-02T09:03:53.063Z,6.10
2019-01-02T09:04:53.195Z,5.30
2019-01-02T09:05:53.312Z,5.20
2019-01-02T09:06:53.462Z,6.20
2019-01-02T09:07:53.665Z,6.70
2019-01-02T09:08:53.787Z,6.70
2019-01-02T09:09:53.909Z,6.80
2019-01-02T09:10:54.123Z,6.30
2019-01-02T09:11:54.246Z,6.30
2019-01-02T09:12:54.437Z,6.90
2019-01-02T09:13:54.602Z,6.80
2019-01-02T09:14:54.698Z,6.30
2019-01-02T09:15:54.937Z,7.00
2019-01-02T09:16:55.068Z,6.70
2019-01-02T09:17:55.224Z,6.90
2019-01-02T09:18:55.401Z,6.40
2019-01-02T09:19:55.511Z,6.70
2019-01-02T09:20:55.737Z,7.00
2019-01-02T09:21:55.890Z,6.80
2019-01-02T09:22:56.083Z,6.90
2019-01-02T09:23:56.196Z,7.10
2019-01-02T09:24:56.348Z,6.60
2019-01-02T09:25:56.492Z,6.50
2019-01-02T09:26:56.609Z,7.00
2019-01-02T09:27:56.774Z,6.70
2019-01-02T09:28:56.989Z,7.10
2019-01-02T09:29:57.047Z,6.60
2019-01-02T09:30:57.305Z,6.60
2019-01-02T09:31:57.453Z,6.90
2019-01-02T09:32:57.613Z,6.50
2019-01-02T09:33:57.722Z,6.90
2019-01-02T09:34:57.898Z,7.00
2019-01-02T09:35:58.014Z,7.20
2019-01-02T09:36:58.242Z,6.90
2019-01-02T09:37:58.437Z,6.60
2019-01-02T09:38:58.596Z,7.00
2019-01-02T09:39:58.765Z,7.00
2019-01-02T09:40:58.900Z,7.10
2019-01-02T09:41:59.062Z,7.10
2019-01-02T09:42:59.210Z,7.30
2019-01-02T09:43:59.388Z,6.90
2019-01-02T09:44:59.574Z,6.70
2019-01-02T09:45:59.649Z,6.30
2019-01-02T09:46:59.854Z,6.50
2019-01-02T09:47:59.983Z,6.70
2019-01-02T09:49:00.163Z,6.10
2019-01-02T09:50:00.344Z,6.80
2019-01-02T09:51:00.553Z,5.90
2019-01-02T09:52:00.679Z,6.40
2019-01-02T09:53:00.804Z,6.70
2019-01-02T09:54:00.987Z,6.90
2019-01-02T09:55:01.514Z,7.00
2019-01-02T09:56:01.328Z,6.60
2019-01-02T09:57:01.478Z,5.80
2019-01-02T09:58:01.651Z,6.10
2019-01-02T09:59:01.857Z,5.00
2019-01-02T10:00:01.992Z,5.60
2019-01-02T10:01:02.145Z,5.50
2019-01-02T10:02:02.297Z,5.10
2019-01-02T10:03:02.480Z,6.10
2019-01-02T10:04:02.585Z,5.90
2019-01-02T10:05:02.780Z,5.70
2019-01-02T10:06:02.951Z,5.60
2019-01-02T10:07:03.193Z,5.80
2019-01-02T10:08:03.337Z,5.90
2019-01-02T10:09:03.478Z,5.90
2019-01-02T10:10:03.640Z,5.40
2019-01-02T10:11:03.823Z,5.00
2019-01-02T10:12:04.024Z,5.10
2019-01-02T10:13:04.218Z,5.40
2019-01-02T10:14:04.318Z,4.90
2019-01-02T10:15:04.496Z,5.00
2019-01-02T10:16:04.715Z,4.70
2019-01-02T10:17:04.907Z,4.40
2019-01-02T10:18:05.007Z,5.00
2019-01-02T10:19:05.149Z,4.40
2019-01-02T10:20:05.395Z,4.50
2019-01-02T10:21:05.477Z,4.40
2019-01-02T10:22:05.593Z,4.70
2019-01-02T10:23:05.799Z,4.60
2019-01-02T10:24:05.995Z,4.40
2019-01-02T10:25:06.164Z,3.60
2019-01-02T10:26:06.307Z,4.60
2019-01-02T10:27:06.477Z,4.30
2019-01-02T10:28:06.608Z,4.50
2019-01-02T10:29:06.764Z,4.40
2019-01-02T10:30:06.904Z,4.80
2019-01-02T10:31:07.123Z,4.40
2019-01-02T10:32:07.381Z,4.30
2019-01-02T10:33:07.480Z,4.60
2019-01-02T10:34:07.619Z,4.80
2019-01-02T10:35:07.798Z,4.80
2019-01-02T10:36:07.908Z,5.00
2019-01-02T10:37:08.902Z,4.50
2019-01-02T10:38:08.356Z,4.50
2019-01-02T10:39:08.500Z,4.50
2019-01-02T10:40:08.702Z,4.30
2019-01-02T10:41:08.819Z,4.40
2019-01-02T10:42:08.958Z,4.20
2019-01-02T10:43:09.084Z,4.10
2019-01-02T10:44:09.250Z,3.80
2019-01-02T10:45:09.452Z,4.20
2019-01-02T10:46:09.620Z,4.20
2019-01-02T10:47:09.746Z,4.20
2019-01-02T10:48:09.960Z,4.00
2019-01-02T10:49:10.094Z,4.20
2019-01-02T10:50:10.293Z,3.80
2019-01-02T10:51:10.461Z,4.50
2019-01-02T10:52:10.586Z,4.20
2019-01-02T10:53:11.473Z,4.00
2019-01-02T10:54:11.019Z,3.90
2019-01-02T10:55:11.072Z,3.80
2019-01-02T10:56:11.276Z,4.00
2019-01-02T10:57:11.426Z,4.10
2019-01-02T10:58:11.549Z,4.30
2019-01-02T10:59:11.673Z,4.10
2019-01-02T11:00:11.901Z,4.00
2019-01-02T11:01:12.049Z,3.60
2019-01-02T11:02:12.213Z,4.00
2019-01-02T11:03:12.326Z,3.60
2019-01-02T11:04:12.510Z,3.40
2019-01-02T11:05:12.680Z,3.30
2019-01-02T11:06:12.837Z,3.50
2019-01-02T11:07:13.004Z,3.60
2019-01-02T11:08:13.565Z,3.20
2019-01-02T11:09:13.351Z,3.70
2019-01-02T11:10:13.528Z,4.00
2019-01-02T11:11:13.682Z,4.50
2019-01-02T11:12:13.785Z,3.20
2019-01-02T11:13:13.950Z,3.70
2019-01-02T11:14:14.071Z,3.80
2019-01-02T11:15:14.288Z,3.70
2019-01-02T11:16:14.468Z,3.90
2019-01-02T11:17:14.623Z,3.00
2019-01-02T11:18:14.799Z,3.40
2019-01-02T11:19:14.893Z,3.90
2019-01-02T11:20:15.116Z,3.60
2019-01-02T11:21:15.269Z,2.90
2019-01-02T11:22:15.414Z,3.60
2019-01-02T11:23:15.544Z,3.50
2019-01-02T11:24:15.745Z,3.30
2019-01-02T11:25:15.938Z,3.70
2019-01-02T11:26:16.089Z,3.30
2019-01-02T11:27:16.281Z,3.40
2019-01-02T11:28:16.452Z,3.00
2019-01-02T11:29:16.611Z,3.00
2019-01-02T11:30:16.806Z,3.00
2019-01-02T11:31:16.891Z,3.00
2019-01-02T11:32:17.980Z,3.40
2019-01-02T11:33:17.182Z,3.20
2019-01-02T11:34:17.342Z,3.30
2019-01-02T11:35:17.529Z,3.50
2019-01-02T11:36:17.737Z,3.20
2019-01-02T11:37:17.779Z,3.70
2019-01-02T11:38:17.987Z,3.50
2019-01-02T11:39:18.134Z,2.90
2019-01-02T11:40:18.311Z,2.90
2019-01-02T11:41:18.572Z,2.70
2019-01-02T11:42:18.659Z,2.70
2019-01-02T11:43:18.871Z,2.90
2019-01-02T11:44:21.404Z,2.60
2019-01-02T11:45:19.159Z,3.20
2019-01-02T11:46:19.375Z,3.10
2019-01-02T11:47:19.480Z,2.90
2019-01-02T11:48:19.610Z,2.80
2019-01-02T11:49:19.896Z,3.20
2019-01-02T11:50:20.008Z,3.10
2019-01-02T11:51:20.199Z,3.10
2019-01-02T11:52:20.327Z,3.90
2019-01-02T11:53:20.501Z,3.40
2019-01-02T11:54:20.640Z,3.30
2019-01-02T11:55:20.814Z,3.20
2019-01-02T11:56:20.937Z,2.90
2019-01-02T11:57:21.160Z,2.90
2019-01-02T11:58:21.271Z,2.50
2019-01-02T11:59:21.417Z,2.60
2019-01-02T12:00:21.614Z,2.60
2019-01-02T12:01:21.766Z,2.90
2019-01-02T12:02:21.895Z,2.70
2019-01-02T12:03:22.105Z,2.70
2019-01-02T12:04:22.223Z,2.70
2019-01-02T12:05:22.433Z,2.60
2019-01-02T12:06:22.552Z,2.50
2019-01-02T12:07:22.701Z,2.50
2019-01-02T12:08:22.918Z,2.50
2019-01-02T12:09:23.075Z,2.50
2019-01-02T12:10:23.148Z,2.30
2019-01-02T12:11:24.967Z,2.10
2019-01-02T12:12:23.609Z,2.40
2019-01-02T12:13:23.711Z,2.40
2019-01-02T12:14:23.886Z,2.40
2019-01-02T12:15:24.046Z,2.50
2019-01-02T12:16:24.258Z,2.30
2019-01-02T12:17:24.405Z,2.20
2019-01-02T12:18:24.470Z,2.60
2019-01-02T12:19:24.698Z,2.30
2019-01-02T12:20:24.906Z,2.50
2019-01-02T12:21:25.033Z,2.60
2019-01-02T12:22:25.167Z,2.60
2019-01-02T12:23:25.310Z,2.60
2019-01-02T12:24:25.543Z,2.70
2019-01-02T12:25:25.711Z,2.70
2019-01-02T12:26:25.844Z,2.70
2019-01-02T12:27:26.146Z,2.90
2019-01-02T12:28:26.342Z,2.80
2019-01-02T12:29:27.061Z,2.50
2019-01-02T12:30:26.616Z,2.30
2019-01-02T12:31:26.780Z,2.60
2019-01-02T12:32:26.874Z,2.70
2019-01-02T12:33:27.128Z,2.60
2019-01-02T12:34:27.269Z,2.80
2019-01-02T12:35:27.425Z,2.50
2019-01-02T12:36:27.589Z,2.30
2019-01-02T12:37:27.775Z,2.40
2019-01-02T12:38:27.926Z,2.20
2019-01-02T12:39:28.190Z,2.30
2019-01-02T12:40:28.316Z,2.10
2019-01-02T12:41:28.518Z,2.50
2019-01-02T12:42:28.692Z,2.30
2019-01-02T12:43:28.853Z,2.40
2019-01-02T12:44:29.018Z,2.60
2019-01-02T12:45:29.186Z,2.30
2019-01-02T12:46:29.353Z,2.00
2019-01-02T12:47:29.494Z,2.00
2019-01-02T12:48:29.667Z,2.10
2019-01-02T12:49:29.915Z,2.20
2019-01-02T12:50:29.946Z,2.20
2019-01-02T12:51:30.220Z,2.30
2019-01-02T12:52:30.399Z,2.10
2019-01-02T12:53:30.587Z,2.10
2019-01-02T12:54:30.667Z,2.40
2019-01-02T12:55:30.876Z,2.00
2019-01-02T12:56:31.018Z,1.80
2019-01-02T12:57:31.210Z,2.20
2019-01-02T12:58:31.403Z,1.90
2019-01-02T12:59:31.547Z,2.30
2019-01-02T13:00:31.760Z,2.10
2019-01-02T13:01:31.878Z,2.20
2019-01-02T13:02:32.085Z,2.00
2019-01-02T13:03:32.203Z,1.90
2019-01-02T13:04:32.381Z,1.90
2019-01-02T13:05:33.172Z,1.90
2019-01-02T13:06:32.731Z,1.90
2019-01-02T13:07:32.922Z,1.90
2019-01-02T13:08:33.061Z,1.80
2019-01-02T13:09:33.239Z,2.00
2019-01-02T13:10:33.420Z,1.90
2019-01-02T13:11:33.551Z,1.90
2019-01-02T13:12:33.756Z,2.00
2019-01-02T13:13:33.863Z,2.00
2019-01-02T13:14:34.107Z,1.70
2019-01-02T13:15:34.217Z,1.70
2019-01-02T13:16:34.419Z,1.90
2019-01-02T13:17:34.610Z,1.80
2019-01-02T13:18:34.812Z,2.00
2019-01-02T13:19:34.869Z,2.00
2019-01-02T13:20:35.124Z,2.00
2019-01-02T13:21:35.245Z,2.20
2019-01-02T13:22:35.625Z,2.10
2019-01-02T13:23:35.559Z,1.90
2019-01-02T13:24:35.755Z,2.00
2019-01-02T13:25:35.977Z,2.00
2019-01-02T13:26:36.029Z,2.00
2019-01-02T13:27:36.178Z,1.80
2019-01-02T13:28:36.435Z,1.70
2019-01-02T13:29:36.579Z,2.00
2019-01-02T13:30:36.744Z,1.80
2019-01-02T13:31:36.886Z,2.10
2019-01-02T13:32:37.127Z,2.30
2019-01-02T13:33:37.259Z,2.10
2019-01-02T13:34:37.401Z,2.30
2019-01-02T13:35:37.590Z,2.20
2019-01-02T13:36:37.792Z,2.00
2019-01-02T13:37:37.962Z,2.20
2019-01-02T13:38:38.168Z,2.10
2019-01-02T13:39:38.359Z,2.00
2019-01-02T13:40:38.537Z,2.00
2019-01-02T13:41:38.714Z,1.80
2019-01-02T13:42:38.780Z,1.90
2019-01-02T13:43:39.022Z,1.80
2019-01-02T13:44:39.197Z,1.90
2019-01-02T13:45:39.339Z,1.80
2019-01-02T13:46:39.518Z,2.10
2019-01-02T13:47:39.684Z,1.90
2019-01-02T13:48:39.853Z,1.70
2019-01-02T13:49:40.309Z,1.40
2019-01-02T13:50:40.324Z,2.00
2019-01-02T13:51:40.438Z,1.90
2019-01-02T13:52:40.605Z,2.20
2019-01-02T13:53:40.721Z,2.20
2019-01-02T13:54:40.928Z,2.20
2019-01-02T13:55:41.044Z,1.70
2019-01-02T13:56:41.274Z,1.70
2019-01-02T13:57:41.454Z,1.70
2019-01-02T13:58:41.623Z,1.60
2019-01-02T13:59:41.796Z,1.80
2019-01-02T14:00:41.963Z,2.20
2019-01-02T14:01:42.106Z,1.60
2019-01-02T14:02:42.294Z,1.70
2019-01-02T14:03:42.406Z,1.80
2019-01-02T14:04:42.566Z,1.80
2019-01-02T14:05:42.793Z,2.40
2019-01-02T14:06:42.962Z,2.20
2019-01-02T14:07:43.023Z,2.00
2019-01-02T14:08:43.204Z,2.00
2019-01-02T14:09:43.400Z,2.30
2019-01-02T14:10:43.592Z,2.10
2019-01-02T14:11:43.764Z,2.00
2019-01-02T14:12:43.983Z,1.70
2019-01-02T14:13:44.126Z,1.70
2019-01-02T14:14:44.329Z,1.90
2019-01-02T14:15:44.535Z,1.80
2019-01-02T14:16:44.673Z,1.90
2019-01-02T14:17:44.824Z,1.70
2019-01-02T14:18:44.967Z,1.80
2019-01-02T14:19:45.187Z,1.90
2019-01-02T14:20:45.315Z,2.60
2019-01-02T14:21:45.526Z,3.10
2019-01-02T14:22:45.655Z,3.00
2019-01-02T14:23:45.823Z,2.20
2019-01-02T14:24:46.019Z,1.90
2019-01-02T14:25:46.147Z,2.10
2019-01-02T14:26:46.329Z,2.00
2019-01-02T14:27:46.478Z,2.00
2019-01-02T14:28:46.607Z,1.90
2019-01-02T14:29:46.882Z,1.80
2019-01-02T14:30:46.977Z,1.80
2019-01-02T14:31:47.141Z,2.60
2019-01-02T14:32:47.317Z,2.20
2019-01-02T14:33:47.648Z,1.70
2019-01-02T14:34:47.987Z,1.80
2019-01-02T14:35:48.017Z,1.60
2019-01-02T14:36:48.009Z,1.80
2019-01-02T14:37:48.305Z,1.90
2019-01-02T14:38:48.532Z,2.40
2019-01-02T14:39:48.593Z,1.90
2019-01-02T14:40:49.052Z,1.80
2019-01-02T14:41:48.987Z,1.80
2019-01-02T14:42:49.517Z,1.90
2019-01-02T14:43:49.311Z,1.60
2019-01-02T14:44:49.410Z,1.60
2019-01-02T14:45:49.663Z,1.40
2019-01-02T14:46:50.586Z,1.50
2019-01-02T14:47:49.955Z,1.70
2019-01-02T14:48:50.128Z,1.80
2019-01-02T14:49:50.437Z,1.80
2019-01-02T14:50:50.601Z,1.70
2019-01-02T14:51:50.721Z,2.10
2019-01-02T14:52:50.879Z,1.90
2019-01-02T14:53:51.166Z,1.60
2019-01-02T14:54:51.207Z,2.00
2019-01-02T14:55:51.267Z,1.90
2019-01-02T14:56:51.554Z,1.90
2019-01-02T14:57:51.905Z,1.80
2019-01-02T14:58:51.793Z,1.90
2019-01-02T14:59:52.003Z,1.90
2019-01-02T15:00:52.147Z,1.80
2019-01-02T15:01:52.335Z,1.80
2019-01-02T15:02:52.466Z,1.70
2019-01-02T15:03:52.568Z,1.80
2019-01-02T15:04:52.808Z,1.70
2019-01-02T15:05:52.912Z,1.90
2019-01-02T15:06:53.062Z,2.00
2019-01-02T15:07:53.291Z,2.00
2019-01-02T15:08:53.394Z,2.50
2019-01-02T15:09:53.552Z,1.90
2019-01-02T15:10:53.709Z,1.90
2019-01-02T15:11:53.900Z,2.10
2019-01-02T15:12:54.066Z,2.20
2019-01-02T15:13:54.251Z,2.40
2019-01-02T15:14:54.348Z,2.50
2019-01-02T15:15:54.582Z,2.30
2019-01-02T15:16:54.710Z,2.90
2019-01-02T15:17:54.879Z,2.50
2019-01-02T15:18:55.034Z,2.30
2019-01-02T15:19:55.143Z,2.40
2019-01-02T15:20:55.280Z,2.00
2019-01-02T15:21:55.510Z,2.00
2019-01-02T15:22:55.714Z,1.80
2019-01-02T15:23:55.851Z,2.10
2019-01-02T15:24:55.960Z,2.30
2019-01-02T15:25:56.184Z,1.80
2019-01-02T15:26:56.407Z,2.20
2019-01-02T15:27:56.414Z,1.90
2019-01-02T15:28:56.640Z,2.00
2019-01-02T15:29:56.787Z,1.80
2019-01-02T15:30:56.946Z,1.80
2019-01-02T15:31:57.130Z,1.70
2019-01-02T15:32:57.319Z,2.00
2019-01-02T15:33:57.503Z,2.10
2019-01-02T15:34:57.641Z,2.00
2019-01-02T15:35:57.811Z,1.90
2019-01-02T15:36:57.997Z,2.10
2019-01-02T15:37:58.128Z,1.90
2019-01-02T15:38:58.260Z,1.90
2019-01-02T15:39:58.402Z,1.90
2019-01-02T15:40:58.617Z,2.00
2019-01-02T15:41:58.727Z,2.00
2019-01-02T15:42:58.916Z,2.00
2019-01-02T15:43:59.091Z,2.30
2019-01-02T15:44:59.188Z,2.10
2019-01-02T15:45:59.421Z,2.40
2019-01-02T15:46:59.533Z,2.10
2019-01-02T15:47:59.719Z,2.20
2019-01-02T15:48:59.909Z,2.20
2019-01-02T15:50:00.221Z,2.20
2019-01-02T15:51:00.231Z,2.20
2019-01-02T15:52:01.077Z,2.50
2019-01-02T15:53:00.557Z,2.50
2019-01-02T15:54:00.676Z,2.90
2019-01-02T15:55:00.824Z,2.40
2019-01-02T15:56:01.036Z,2.30
2019-01-02T15:57:01.145Z,4.40
2019-01-02T15:58:01.297Z,4.60
2019-01-02T15:59:01.425Z,2.80
2019-01-02T16:00:01.663Z,3.90
2019-01-02T16:01:01.802Z,7.20
2019-01-02T16:02:01.947Z,4.80
2019-01-02T16:03:02.055Z,3.50
2019-01-02T16:04:02.205Z,3.90
2019-01-02T16:05:02.366Z,2.80
2019-01-02T16:06:02.601Z,3.40
2019-01-02T16:07:02.720Z,3.20
2019-01-02T16:08:02.969Z,6.80
2019-01-02T16:09:03.068Z,3.90
2019-01-02T16:10:03.266Z,3.20
2019-01-02T16:11:03.344Z,3.00
2019-01-02T16:12:03.504Z,2.40
2019-01-02T16:13:03.713Z,2.70
2019-01-02T16:14:03.824Z,2.40
2019-01-02T16:15:04.057Z,2.30
2019-01-02T16:16:04.205Z,2.60
2019-01-02T16:17:04.398Z,2.30
2019-01-02T16:18:04.538Z,2.30
2019-01-02T16:19:04.707Z,2.90
2019-01-02T16:20:04.918Z,2.30
2019-01-02T16:21:05.042Z,2.10
2019-01-02T16:22:05.246Z,2.20
2019-01-02T16:23:05.387Z,2.00
2019-01-02T16:24:05.487Z,2.90
2019-01-02T16:25:05.600Z,2.50
2019-01-02T16:26:05.876Z,3.00
2019-01-02T16:27:06.335Z,2.10
2019-01-02T16:28:06.247Z,1.90
2019-01-02T16:29:06.349Z,2.10
2019-01-02T16:30:06.541Z,2.00
2019-01-02T16:31:06.689Z,1.90
2019-01-02T16:32:06.861Z,1.90
2019-01-02T16:33:06.979Z,1.70
2019-01-02T16:34:07.173Z,2.20
2019-01-02T16:35:07.366Z,2.10
2019-01-02T16:36:07.519Z,2.10
2019-01-02T16:37:07.613Z,2.00
2019-01-02T16:38:07.782Z,2.10
2019-01-02T16:39:07.905Z,2.10
2019-01-02T16:40:08.147Z,2.10
2019-01-02T16:41:08.258Z,2.40
2019-01-02T16:42:08.474Z,2.30
2019-01-02T16:43:08.617Z,2.30
2019-01-02T16:44:08.870Z,2.50
2019-01-02T16:45:08.921Z,2.90
2019-01-02T16:46:08.986Z,2.30
2019-01-02T16:47:09.205Z,2.50
2019-01-02T16:48:09.380Z,3.20
2019-01-02T16:49:09.714Z,4.10
2019-01-02T16:50:09.780Z,2.80
2019-01-02T16:51:09.981Z,2.80
2019-01-02T16:52:10.165Z,2.40
2019-01-02T16:53:10.328Z,2.60
2019-01-02T16:54:10.428Z,4.80
2019-01-02T16:55:10.529Z,2.50
2019-01-02T16:56:10.716Z,2.60
2019-01-02T16:57:10.829Z,2.80
2019-01-02T16:58:11.048Z,2.30
2019-01-02T16:59:11.178Z,2.60
2019-01-02T17:00:11.376Z,2.90
2019-01-02T17:01:11.515Z,2.80
2019-01-02T17:02:11.714Z,2.50
2019-01-02T17:03:11.827Z,3.20
2019-01-02T17:04:12.054Z,4.10
2019-01-02T17:05:12.175Z,5.80
2019-01-02T17:06:12.423Z,5.70
2019-01-02T17:07:12.446Z,5.20
2019-01-02T17:08:12.700Z,7.10
2019-01-02T17:09:12.793Z,9.50
2019-01-02T17:10:12.926Z,4.90
2019-01-02T17:11:13.065Z,3.20
2019-01-02T17:12:13.281Z,3.10
2019-01-02T17:13:13.450Z,3.40
2019-01-02T17:14:13.605Z,2.80
2019-01-02T17:15:13.760Z,3.00
2019-01-02T17:16:13.933Z,2.50
2019-01-02T17:17:14.076Z,2.30
2019-01-02T17:18:14.229Z,2.10
2019-01-02T17:19:14.406Z,2.40
2019-01-02T17:20:14.565Z,2.30
2019-01-02T17:21:14.671Z,2.60
2019-01-02T17:22:14.877Z,3.00
2019-01-02T17:23:15.024Z,3.00